Urbana, Illinois
Current Conditions -  °F | °C
As of 1:53 AM on Thursday 29 Jan 2015 (Local Time) from KCMI Reporting Station
Clear Clear  
Wind Chill: 27°   Ceiling: Unl
Heat Index: 37°   Visibility: 10mi
Dew Point: 30°   Wind: 17mph
Humidity: 76%   Direction: 170°S
Pressure: 29.77"   Gusts: 26mph
Location:  40.12°N, 88.2°W
Report Text: KCMI 290753Z AUTO 17015G23KT 10SM CLR 03/M01 A2977 RMK AO2 SLP086 T00281011
Loading
Personal Weather Stations






























Interactive Weather Map New forecast layout! Learn more

10-Day Weather Forecast

Advertisements
Track Severe Weather on mobile